createdAt,value
2019-04-06T00:00:25.933Z,75.76
2019-04-06T00:01:25.945Z,76.17
2019-04-06T00:02:26.012Z,74.98
2019-04-06T00:03:25.901Z,75.70
2019-04-06T00:04:25.888Z,74.61
2019-04-06T00:06:25.951Z,75.02
2019-04-06T00:08:25.950Z,76.78
2019-04-06T00:09:25.833Z,76.31
2019-04-06T00:10:25.848Z,76.07
2019-04-06T00:21:25.716Z,72.34
2019-04-06T00:23:25.683Z,71.22
2019-04-06T00:36:25.543Z,74.41
2019-04-06T00:37:25.556Z,74.82
2019-04-06T00:38:25.543Z,75.32
2019-04-06T00:39:25.541Z,75.12
2019-04-06T00:40:25.622Z,76.04
2019-04-06T00:41:25.508Z,75.36
2019-04-06T00:42:25.474Z,74.96
2019-04-06T00:43:25.466Z,75.46
2019-04-06T00:44:25.506Z,75.26
2019-04-06T00:45:25.758Z,74.96
2019-04-06T00:46:25.393Z,75.06
2019-04-06T00:47:25.379Z,75.46
2019-04-06T00:48:25.371Z,75.46
2019-04-06T00:49:25.357Z,74.96
2019-04-06T00:50:25.345Z,75.26
2019-04-06T00:51:25.434Z,75.16
2019-04-06T00:52:25.333Z,76.48
2019-04-06T00:53:25.317Z,75.77
2019-04-06T00:54:25.302Z,76.62
2019-04-06T00:55:25.295Z,77.20
2019-04-06T00:56:25.384Z,76.99
2019-04-06T00:57:25.274Z,76.89
2019-04-06T00:58:25.265Z,76.99
2019-04-06T00:59:25.254Z,75.40
2019-04-06T01:00:25.244Z,75.91
2019-04-06T01:01:25.385Z,76.62
2019-04-06T01:02:25.218Z,76.01
2019-04-06T01:03:25.207Z,76.31
2019-04-06T01:04:25.205Z,76.22
2019-04-06T01:05:25.191Z,75.81
2019-04-06T01:06:25.274Z,76.01
2019-04-06T01:07:25.171Z,76.69
2019-04-06T01:08:25.153Z,76.62
2019-04-06T01:09:25.140Z,75.09
2019-04-06T01:10:25.131Z,76.08
2019-04-06T01:11:25.119Z,76.79
2019-04-06T01:12:25.215Z,77.26
2019-04-06T01:13:25.099Z,75.50
2019-04-06T01:14:25.091Z,74.99
2019-04-06T01:15:25.077Z,74.48
2019-04-06T01:16:25.068Z,74.58
2019-04-06T01:17:25.062Z,73.22
2019-04-06T01:18:25.250Z,73.93
2019-04-06T01:19:25.062Z,72.78
2019-04-06T01:20:25.022Z,71.33
2019-04-06T01:21:25.011Z,70.78
2019-04-06T01:22:25.045Z,71.36
2019-04-06T01:23:24.995Z,70.11
2019-04-06T01:24:25.079Z,69.20
2019-04-06T01:25:24.974Z,67.37
2019-04-06T01:26:24.963Z,67.57
2019-04-06T01:27:24.947Z,68.96
2019-04-06T01:28:24.938Z,69.13
2019-04-06T01:29:25.027Z,68.69
2019-04-06T01:30:24.919Z,66.66
2019-04-06T01:31:24.908Z,66.77
2019-04-06T01:32:24.908Z,67.27
2019-04-06T01:33:24.893Z,66.33
2019-04-06T01:34:24.877Z,65.22
2019-04-06T01:35:25.017Z,65.31
2019-04-06T01:36:24.849Z,64.68
2019-04-06T01:37:24.848Z,66.27
2019-04-06T01:38:24.837Z,65.13
2019-04-06T01:39:24.827Z,63.31
2019-04-06T01:40:24.808Z,63.58
2019-04-06T01:41:24.985Z,64.05
2019-04-06T01:42:24.822Z,62.94
2019-04-06T01:43:24.774Z,61.32
2019-04-06T01:44:24.764Z,61.09
2019-04-06T01:45:24.756Z,59.88
2019-04-06T01:46:24.741Z,61.07
2019-04-06T01:47:24.845Z,60.87
2019-04-06T01:48:24.722Z,60.23
2019-04-06T01:49:24.722Z,58.72
2019-04-06T01:50:24.698Z,57.81
2019-04-06T01:51:24.693Z,57.81
2019-04-06T01:52:24.680Z,57.55
2019-04-06T01:53:24.823Z,56.75
2019-04-06T01:54:24.711Z,56.75
2019-04-06T01:55:24.645Z,56.31
2019-04-06T01:56:24.645Z,55.68
2019-04-06T01:57:24.624Z,55.35
2019-04-06T01:58:24.615Z,54.85
2019-04-06T01:59:24.715Z,53.62
2019-04-06T02:00:24.601Z,53.82
2019-04-06T02:01:24.580Z,53.92
2019-04-06T02:02:24.574Z,53.09
2019-04-06T02:03:24.571Z,53.16
2019-04-06T02:04:24.555Z,53.67
2019-04-06T02:05:24.639Z,53.64
2019-04-06T02:06:24.531Z,51.91
2019-04-06T02:07:24.519Z,51.71
2019-04-06T02:08:24.510Z,51.19
2019-04-06T02:09:24.494Z,50.98
2019-04-06T02:10:24.486Z,51.16
2019-04-06T02:11:24.574Z,50.96
2019-04-06T02:12:24.464Z,52.74
2019-04-06T02:13:24.455Z,51.81
2019-04-06T02:14:24.446Z,53.27
2019-04-06T02:15:24.429Z,49.86
2019-04-06T02:16:24.471Z,48.93
2019-04-06T02:17:24.512Z,48.71
2019-04-06T02:18:24.399Z,49.79
2019-04-06T02:19:24.387Z,48.87
2019-04-06T02:20:24.382Z,48.24
2019-04-06T02:21:24.509Z,47.65
2019-04-06T02:22:24.358Z,48.14
2019-04-06T02:23:24.447Z,47.24
2019-04-06T02:24:24.338Z,47.22
2019-04-06T02:25:24.326Z,47.27
2019-04-06T02:26:30.205Z,46.25
2019-04-06T02:27:49.202Z,43.64
2019-04-06T02:28:49.221Z,43.94
2019-04-06T02:29:49.107Z,42.74
2019-04-06T02:30:49.092Z,44.22
2019-04-06T02:31:49.083Z,43.52
2019-04-06T02:32:49.071Z,42.90
2019-04-06T02:33:49.462Z,42.49
2019-04-06T02:34:49.048Z,42.16
2019-04-06T02:35:49.041Z,42.27
2019-04-06T02:36:49.146Z,42.15
2019-04-06T02:37:49.018Z,41.15
2019-04-06T02:38:49.016Z,41.43
2019-04-06T02:39:49.115Z,42.02
2019-04-06T02:40:48.981Z,41.31
2019-04-06T02:41:48.978Z,40.32
2019-04-06T02:42:48.969Z,40.02
2019-04-06T02:43:48.962Z,39.80
2019-04-06T02:44:48.947Z,39.98
2019-04-06T02:45:49.038Z,38.79
2019-04-06T02:46:48.924Z,38.89
2019-04-06T02:47:48.922Z,40.26
2019-04-06T02:48:48.911Z,38.48
2019-04-06T02:49:48.983Z,39.05
2019-04-06T02:50:48.884Z,38.85
2019-04-06T02:51:49.022Z,38.75
2019-04-06T02:52:48.907Z,38.83
2019-04-06T02:53:48.852Z,38.22
2019-04-06T02:54:48.844Z,38.22
2019-04-06T02:55:48.828Z,38.70
2019-04-06T02:56:48.874Z,37.69
2019-04-06T02:57:48.815Z,36.99
2019-04-06T02:58:48.803Z,37.77
2019-04-06T02:59:48.808Z,37.37
2019-04-06T03:00:48.811Z,37.06
2019-04-06T03:01:48.772Z,35.56
2019-04-06T03:02:48.876Z,37.44
2019-04-06T03:03:48.855Z,35.98
2019-04-06T03:04:48.940Z,36.95
2019-04-06T03:05:48.742Z,36.15
2019-04-06T03:06:48.720Z,36.05
2019-04-06T03:07:48.729Z,35.35
2019-04-06T03:08:49.095Z,35.74
2019-04-06T03:09:48.785Z,36.10
2019-04-06T03:10:48.683Z,35.41
2019-04-06T03:11:48.675Z,34.79
2019-04-06T03:12:48.651Z,35.08
2019-04-06T03:13:48.641Z,34.47
2019-04-06T03:14:48.687Z,35.24
2019-04-06T03:15:48.636Z,34.95
2019-04-06T03:16:48.611Z,34.55
2019-04-06T03:17:48.600Z,33.45
2019-04-06T03:18:48.593Z,34.24
2019-04-06T03:19:48.624Z,34.53
2019-04-06T03:20:48.571Z,33.64
2019-04-06T03:21:48.822Z,32.75
2019-04-06T03:22:48.556Z,32.95
2019-04-06T03:23:51.265Z,32.64
2019-04-06T03:24:48.643Z,32.26
2019-04-06T03:25:48.515Z,33.33
2019-04-06T03:26:59.944Z,32.73
2019-04-06T03:27:49.698Z,32.54
2019-04-06T03:28:48.484Z,33.34
2019-04-06T03:29:57.501Z,33.52
2019-04-06T03:30:50.157Z,33.12
2019-04-06T03:31:48.475Z,32.64
2019-04-06T03:32:48.440Z,33.22
2019-04-06T03:33:48.642Z,32.64
2019-04-06T03:34:48.418Z,32.73
2019-04-06T03:35:49.998Z,33.52
2019-04-06T03:36:48.462Z,33.50
2019-04-06T03:37:48.388Z,32.72
2019-04-06T03:38:48.382Z,32.40
2019-04-06T03:39:48.374Z,32.03
2019-04-06T03:40:48.356Z,32.70
2019-04-06T03:41:48.493Z,32.40
2019-04-06T03:42:48.382Z,32.00
2019-04-06T03:43:48.321Z,31.70
2019-04-06T03:44:48.317Z,32.59
2019-04-06T03:45:48.308Z,32.67
2019-04-06T03:46:48.294Z,32.08
2019-04-06T03:47:48.391Z,30.81
2019-04-06T03:48:48.270Z,32.57
2019-04-06T03:49:48.407Z,31.40
2019-04-06T03:50:48.253Z,32.08
2019-04-06T03:51:48.239Z,31.50
2019-04-06T03:52:48.294Z,31.67
2019-04-06T03:53:48.274Z,31.38
2019-04-06T03:54:48.311Z,31.67
2019-04-06T03:55:48.198Z,32.75
2019-04-06T03:56:48.182Z,31.48
2019-04-06T03:57:48.176Z,31.98
2019-04-06T03:58:48.166Z,32.67
2019-04-06T03:59:48.210Z,33.14
2019-04-06T04:00:48.314Z,31.40
2019-04-06T04:01:48.136Z,31.69
2019-04-06T04:02:48.316Z,32.87
2019-04-06T04:03:48.118Z,31.79
2019-04-06T04:04:48.555Z,30.90
2019-04-06T04:05:48.183Z,31.31
2019-04-06T04:06:48.083Z,31.41
2019-04-06T04:07:48.074Z,31.90
2019-04-06T04:08:48.059Z,30.61
2019-04-06T04:09:48.050Z,31.80
2019-04-06T04:10:48.206Z,31.02
2019-04-06T04:11:48.026Z,31.02
2019-04-06T04:12:48.023Z,32.00
2019-04-06T04:13:48.008Z,31.12
2019-04-06T04:14:48.000Z,31.00
2019-04-06T04:15:47.987Z,31.09
2019-04-06T04:16:48.031Z,31.76
2019-04-06T04:17:48.094Z,30.48
2019-04-06T04:18:47.959Z,31.17
2019-04-06T04:19:47.942Z,30.48
2019-04-06T04:20:47.929Z,30.38
2019-04-06T04:21:47.924Z,30.89
2019-04-06T04:22:48.063Z,31.76
2019-04-06T04:23:47.907Z,30.76
2019-04-06T04:24:47.895Z,31.06
2019-04-06T04:25:47.880Z,30.45
2019-04-06T04:26:47.874Z,30.74
2019-04-06T04:27:47.862Z,30.55
2019-04-06T04:28:47.953Z,31.06
2019-04-06T04:29:47.877Z,31.23
2019-04-06T04:30:47.831Z,30.83
2019-04-06T04:31:47.912Z,30.26
2019-04-06T04:32:47.812Z,30.74
2019-04-06T04:33:47.940Z,30.55
2019-04-06T04:34:47.840Z,31.53
2019-04-06T04:35:47.796Z,31.04
2019-04-06T04:36:47.774Z,29.58
2019-04-06T04:37:47.751Z,30.97
2019-04-06T04:38:47.743Z,31.06
2019-04-06T04:39:48.025Z,31.14
2019-04-06T04:40:47.876Z,31.73
2019-04-06T04:41:47.714Z,30.54
2019-04-06T04:42:47.860Z,30.52
2019-04-06T04:43:47.693Z,30.52
2019-04-06T04:44:47.684Z,30.52
2019-04-06T04:45:47.667Z,29.24
2019-04-06T04:46:47.757Z,28.94
2019-04-06T04:47:49.995Z,30.42
2019-04-06T04:48:47.640Z,29.54
2019-04-06T04:49:47.628Z,30.54
2019-04-06T04:50:47.856Z,30.34
2019-04-06T04:51:47.711Z,30.74
2019-04-06T04:52:47.698Z,31.34
2019-04-06T04:53:47.587Z,30.74
2019-04-06T04:54:47.582Z,31.12
2019-04-06T04:55:47.775Z,30.63
2019-04-06T04:56:47.564Z,30.32
2019-04-06T04:57:47.547Z,31.10
2019-04-06T04:58:47.780Z,29.63
2019-04-06T04:59:47.527Z,30.60
2019-04-06T05:00:47.524Z,30.90
2019-04-06T05:01:47.514Z,29.32
2019-04-06T05:02:47.496Z,30.21
2019-04-06T05:03:47.671Z,30.10
2019-04-06T05:04:47.577Z,29.30
2019-04-06T05:05:47.462Z,29.60
2019-04-06T05:06:47.523Z,29.40
2019-04-06T05:07:47.444Z,29.60
2019-04-06T05:08:47.436Z,29.10
2019-04-06T05:09:47.424Z,28.71
2019-04-06T05:10:47.541Z,28.51
2019-04-06T05:11:49.017Z,28.51
2019-04-06T05:12:47.398Z,28.12
2019-04-06T05:13:47.387Z,28.51
2019-04-06T05:14:47.373Z,28.51
2019-04-06T05:15:47.360Z,28.02
2019-04-06T05:16:47.517Z,28.41
2019-04-06T05:17:47.343Z,27.83
2019-04-06T05:18:47.335Z,28.80
2019-04-06T05:19:47.328Z,28.72
2019-04-06T05:20:47.317Z,27.07
2019-04-06T05:21:47.326Z,28.16
2019-04-06T05:22:47.346Z,29.35
2019-04-06T05:23:47.286Z,29.36
2019-04-06T05:24:47.271Z,31.23
2019-04-06T05:25:47.430Z,30.58
2019-04-06T05:26:47.255Z,31.29
2019-04-06T05:27:52.398Z,32.61
2019-04-06T05:28:47.277Z,33.12
2019-04-06T05:29:47.223Z,31.76
2019-04-06T05:30:47.211Z,33.86
2019-04-06T05:31:47.202Z,34.67
2019-04-06T05:32:47.217Z,35.00
2019-04-06T05:33:47.179Z,33.95
2019-04-06T05:34:47.317Z,35.25
2019-04-06T05:35:47.194Z,34.57
2019-04-06T05:36:47.146Z,35.38
2019-04-06T05:37:47.138Z,36.09
2019-04-06T05:38:47.123Z,36.60
2019-04-06T05:39:47.113Z,36.60
2019-04-06T05:40:47.206Z,37.51
2019-04-06T05:41:47.096Z,37.41
2019-04-06T05:42:47.084Z,37.03
2019-04-06T05:43:47.073Z,37.75
2019-04-06T05:44:47.063Z,37.27
2019-04-06T05:45:47.076Z,37.98
2019-04-06T05:46:47.093Z,38.89
2019-04-06T05:47:47.034Z,39.11
2019-04-06T05:48:47.019Z,40.10
2019-04-06T05:49:47.009Z,40.10
2019-04-06T05:50:47.005Z,40.42
2019-04-06T05:51:46.988Z,41.51
2019-04-06T05:52:47.226Z,41.43
2019-04-06T05:53:46.966Z,41.13
2019-04-06T05:54:46.964Z,41.43
2019-04-06T05:55:46.939Z,41.33
2019-04-06T05:56:46.936Z,40.34
2019-04-06T05:57:46.924Z,40.83
2019-04-06T05:58:47.014Z,41.35
2019-04-06T05:59:46.978Z,40.46
2019-04-06T06:00:46.896Z,40.26
2019-04-06T06:01:48.452Z,40.46
2019-04-06T06:02:46.871Z,40.36
2019-04-06T06:03:46.970Z,42.35
2019-04-06T06:04:46.856Z,41.75
2019-04-06T06:05:46.840Z,41.67
2019-04-06T06:06:47.027Z,41.47
2019-04-06T06:07:46.909Z,42.37
2019-04-06T06:08:46.808Z,42.86
2019-04-06T06:09:46.855Z,42.08
2019-04-06T06:10:46.787Z,43.08
2019-04-06T06:11:46.779Z,42.29
2019-04-06T06:12:46.765Z,41.89
2019-04-06T06:13:46.765Z,43.28
2019-04-06T06:14:46.739Z,41.39
2019-04-06T06:15:46.831Z,42.68
2019-04-06T06:16:46.794Z,42.98
2019-04-06T06:17:46.729Z,42.29
2019-04-06T06:18:46.702Z,42.19
2019-04-06T06:19:46.693Z,42.29
2019-04-06T06:20:48.369Z,42.98
2019-04-06T06:21:46.671Z,42.38
2019-04-06T06:22:46.792Z,40.89
2019-04-06T06:23:46.645Z,41.79
2019-04-06T06:24:46.641Z,42.19
2019-04-06T06:25:46.628Z,42.98
2019-04-06T06:26:46.669Z,42.19
2019-04-06T06:27:46.610Z,41.99
2019-04-06T06:28:46.595Z,43.68
2019-04-06T06:29:46.612Z,42.38
2019-04-06T06:30:46.578Z,41.59
2019-04-06T06:31:46.566Z,42.08
2019-04-06T06:32:46.664Z,41.29
2019-04-06T06:33:46.547Z,42.29
2019-04-06T06:34:46.538Z,42.08
2019-04-06T06:35:46.523Z,40.39
2019-04-06T06:36:46.515Z,40.10
2019-04-06T06:37:46.507Z,41.61
2019-04-06T06:38:46.641Z,41.71
2019-04-06T06:39:46.498Z,41.51
2019-04-06T06:40:46.630Z,42.41
2019-04-06T06:41:46.460Z,41.71
2019-04-06T06:42:46.453Z,41.71
2019-04-06T06:43:46.446Z,41.41
2019-04-06T06:44:46.756Z,40.52
2019-04-06T06:45:46.429Z,41.51
2019-04-06T06:46:46.408Z,41.81
2019-04-06T06:47:46.524Z,42.01
2019-04-06T06:48:46.391Z,41.31
2019-04-06T06:49:46.498Z,41.61
2019-04-06T06:50:46.469Z,41.81
2019-04-06T06:51:46.355Z,43.50
2019-04-06T06:52:46.343Z,43.10
2019-04-06T06:53:46.333Z,42.88
2019-04-06T06:54:46.385Z,42.59
2019-04-06T06:55:46.314Z,41.69
2019-04-06T06:56:46.687Z,43.28
2019-04-06T06:57:46.297Z,42.68
2019-04-06T06:58:46.281Z,42.59
2019-04-06T06:59:46.274Z,41.47
2019-04-06T07:00:46.268Z,43.76
2019-04-06T07:01:46.257Z,43.08
2019-04-06T07:02:46.318Z,42.96
2019-04-06T07:03:46.374Z,41.87
2019-04-06T07:04:46.221Z,42.16
2019-04-06T07:05:46.208Z,41.57
2019-04-06T07:06:46.207Z,42.96
2019-04-06T07:07:46.331Z,41.87
2019-04-06T07:08:46.229Z,42.66
2019-04-06T07:09:46.174Z,43.18
2019-04-06T07:10:46.162Z,41.37
2019-04-06T07:11:46.155Z,41.17
2019-04-06T07:12:46.134Z,42.16
2019-04-06T07:13:46.130Z,40.50
2019-04-06T07:14:46.333Z,41.27
2019-04-06T07:15:46.107Z,41.97
2019-04-06T07:16:46.131Z,41.17
2019-04-06T07:17:46.087Z,42.37
2019-04-06T07:18:46.161Z,42.59
2019-04-06T07:19:46.067Z,40.10
2019-04-06T07:20:46.155Z,40.58
2019-04-06T07:21:46.039Z,41.97
2019-04-06T07:22:46.035Z,42.66
2019-04-06T07:23:46.234Z,37.20
2019-04-06T07:24:46.009Z,37.39
2019-04-06T07:25:56.638Z,38.69
2019-04-06T07:27:11.075Z,40.08
2019-04-06T07:28:11.293Z,38.47
2019-04-06T07:29:10.889Z,40.08
2019-04-06T07:30:11.078Z,41.57
2019-04-06T07:31:10.873Z,42.05
2019-04-06T07:32:11.056Z,39.08
2019-04-06T07:33:11.103Z,40.58
2019-04-06T07:34:10.837Z,35.60
2019-04-06T07:35:10.838Z,35.90
2019-04-06T07:36:10.820Z,35.30
2019-04-06T07:37:11.127Z,36.30
2019-04-06T07:38:10.860Z,36.21
2019-04-06T07:39:10.785Z,36.12
2019-04-06T07:40:10.826Z,39.10
2019-04-06T07:41:10.764Z,42.49
2019-04-06T07:42:10.944Z,36.13
2019-04-06T07:43:10.741Z,35.14
2019-04-06T07:44:11.008Z,38.61
2019-04-06T07:45:10.730Z,41.39
2019-04-06T07:46:10.717Z,41.59
2019-04-06T07:47:10.704Z,38.98
2019-04-06T07:48:10.693Z,41.17
2019-04-06T07:49:10.713Z,43.96
2019-04-06T07:50:11.059Z,41.27
2019-04-06T07:51:10.676Z,37.49
2019-04-06T07:52:10.661Z,43.56
2019-04-06T07:53:10.829Z,34.31
2019-04-06T07:54:10.639Z,36.49
2019-04-06T07:55:10.612Z,34.80
2019-04-06T07:56:10.768Z,34.51
2019-04-06T07:57:10.598Z,34.41
2019-04-06T07:58:10.628Z,34.13
2019-04-06T07:59:10.582Z,33.73
2019-04-06T08:00:10.568Z,33.92
2019-04-06T08:01:10.558Z,35.52
2019-04-06T08:02:10.834Z,35.42
2019-04-06T08:03:10.555Z,41.89
2019-04-06T08:04:10.525Z,37.61
2019-04-06T08:05:10.521Z,37.81
2019-04-06T08:06:10.507Z,41.59
2019-04-06T08:07:10.503Z,41.17
2019-04-06T08:08:10.740Z,35.70
2019-04-06T08:09:10.477Z,34.61
2019-04-06T08:10:10.698Z,34.31
2019-04-06T08:11:10.458Z,34.49
2019-04-06T08:12:10.446Z,34.29
2019-04-06T08:13:10.459Z,40.96
2019-04-06T08:14:10.540Z,39.27
2019-04-06T08:15:10.416Z,37.46
2019-04-06T08:16:10.404Z,32.59
2019-04-06T08:17:10.393Z,32.98
2019-04-06T08:18:10.382Z,32.78
2019-04-06T08:19:10.421Z,35.07
2019-04-06T08:20:10.376Z,31.89
2019-04-06T08:21:10.426Z,43.30
2019-04-06T08:22:10.345Z,34.87
2019-04-06T08:23:10.330Z,38.75
2019-04-06T08:24:10.325Z,35.96
2019-04-06T08:25:10.364Z,42.23
2019-04-06T08:26:10.760Z,45.01
2019-04-06T08:27:10.292Z,33.68
2019-04-06T08:28:10.467Z,32.19
2019-04-06T08:29:10.273Z,33.08
2019-04-06T08:30:10.262Z,33.68
2019-04-06T08:31:10.689Z,44.51
2019-04-06T08:32:10.244Z,38.75
2019-04-06T08:33:10.229Z,40.04
2019-04-06T08:34:10.221Z,40.24
2019-04-06T08:35:10.206Z,38.84
2019-04-06T08:36:10.197Z,43.92
2019-04-06T08:37:10.309Z,43.62
2019-04-06T08:38:10.175Z,45.43
2019-04-06T08:39:10.395Z,46.02
2019-04-06T08:40:10.158Z,43.84
2019-04-06T08:41:10.144Z,38.07
2019-04-06T08:42:10.134Z,41.85
2019-04-06T08:43:10.181Z,35.66
2019-04-06T08:44:10.118Z,35.87
2019-04-06T08:45:10.106Z,34.08
2019-04-06T08:46:10.097Z,33.98
2019-04-06T08:47:10.090Z,35.96
2019-04-06T08:48:10.073Z,43.79
2019-04-06T08:49:11.018Z,44.61
2019-04-06T08:50:10.051Z,38.45
2019-04-06T08:51:10.115Z,33.68
2019-04-06T08:52:11.595Z,31.99
2019-04-06T08:53:10.027Z,32.27
2019-04-06T08:54:10.012Z,35.65
2019-04-06T08:55:10.053Z,33.07
2019-04-06T08:56:09.993Z,35.55
2019-04-06T08:57:09.979Z,30.98
2019-04-06T08:58:09.969Z,31.38
2019-04-06T08:59:12.106Z,32.85
2019-04-06T09:00:10.009Z,32.85
2019-04-06T09:01:10.043Z,32.26
2019-04-06T09:02:09.927Z,33.17
2019-04-06T09:03:09.923Z,32.17
2019-04-06T09:04:09.930Z,31.28
2019-04-06T09:05:09.898Z,31.68
2019-04-06T09:06:09.897Z,30.80
2019-04-06T09:07:10.129Z,31.89
2019-04-06T09:08:09.870Z,31.89
2019-04-06T09:09:09.861Z,33.18
2019-04-06T09:10:09.850Z,31.59
2019-04-06T09:11:09.844Z,38.35
2019-04-06T09:12:09.828Z,36.46
2019-04-06T09:13:09.867Z,37.75
2019-04-06T09:14:09.807Z,30.00
2019-04-06T09:15:10.054Z,29.71
2019-04-06T09:16:09.785Z,29.51
2019-04-06T09:17:09.774Z,30.99
2019-04-06T09:18:09.768Z,31.38
2019-04-06T09:19:09.803Z,30.88
2019-04-06T09:20:09.897Z,32.09
2019-04-06T09:21:09.734Z,30.70
2019-04-06T09:22:09.726Z,31.50
2019-04-06T09:23:09.737Z,32.09
2019-04-06T09:24:09.706Z,34.28
2019-04-06T09:25:10.247Z,31.89
2019-04-06T09:26:09.686Z,32.19
2019-04-06T09:27:09.905Z,32.39
2019-04-06T09:28:09.661Z,35.17
2019-04-06T09:29:09.752Z,31.29
2019-04-06T09:30:09.642Z,31.29
2019-04-06T09:31:09.716Z,31.69
2019-04-06T09:34:34.203Z,39.84
2019-04-06T09:34:38.726Z,41.33
2019-04-06T09:35:38.922Z,40.53
2019-04-06T09:36:38.752Z,43.52
2019-04-06T09:37:38.991Z,37.56
2019-04-06T09:38:38.716Z,39.52
2019-04-06T09:39:38.670Z,41.43
2019-04-06T09:40:38.659Z,39.14
2019-04-06T09:41:38.653Z,31.99
2019-04-06T09:42:38.785Z,34.57
2019-04-06T09:43:38.705Z,31.50
2019-04-06T09:44:38.610Z,31.89
2019-04-06T09:45:41.284Z,34.66
2019-04-06T09:46:38.588Z,34.47
2019-04-06T09:47:38.579Z,34.56
2019-04-06T09:48:38.616Z,32.57
2019-04-06T09:49:38.559Z,31.50
2019-04-06T09:50:38.549Z,32.09
2019-04-06T09:51:38.532Z,31.89
2019-04-06T09:52:38.525Z,32.67
2019-04-06T09:53:38.514Z,33.76
2019-04-06T09:54:38.772Z,38.14
2019-04-06T09:55:38.491Z,34.06
2019-04-06T09:56:38.486Z,33.17
2019-04-06T09:57:38.473Z,34.96
2019-04-06T09:58:38.469Z,36.16
2019-04-06T09:59:38.712Z,41.21
2019-04-06T10:00:38.843Z,32.37
2019-04-06T10:01:39.267Z,37.14
2019-04-06T10:02:38.421Z,39.12
2019-04-06T10:03:38.665Z,41.04
2019-04-06T10:04:38.693Z,35.47
2019-04-06T10:05:38.629Z,35.37
2019-04-06T10:06:38.629Z,37.46
2019-04-06T10:07:38.365Z,40.34
2019-04-06T10:08:38.494Z,32.09
2019-04-06T10:09:38.371Z,31.29
2019-04-06T10:10:38.345Z,33.88
2019-04-06T10:11:38.328Z,40.44
2019-04-06T10:12:38.365Z,33.98
2019-04-06T10:13:38.306Z,32.39
2019-04-06T10:14:38.300Z,34.68
2019-04-06T10:15:38.291Z,34.77
2019-04-06T10:16:38.275Z,34.08
2019-04-06T10:17:38.264Z,34.69
2019-04-06T10:18:38.404Z,34.99
2019-04-06T10:19:38.245Z,32.60
2019-04-06T10:20:38.329Z,32.11
2019-04-06T10:21:38.225Z,32.12
2019-04-06T10:22:38.548Z,33.91
2019-04-06T10:23:38.202Z,32.32
2019-04-06T10:24:38.369Z,31.81
2019-04-06T10:25:38.481Z,31.92
2019-04-06T10:26:38.165Z,34.59
2019-04-06T10:27:38.164Z,34.19
2019-04-06T10:28:38.165Z,41.65
2019-04-06T10:29:48.254Z,37.47
2019-04-06T10:30:39.357Z,37.18
2019-04-06T10:31:38.134Z,34.59
2019-04-06T10:32:38.123Z,32.50
2019-04-06T10:33:38.109Z,33.02
2019-04-06T10:34:38.156Z,33.71
2019-04-06T10:35:38.088Z,35.50
2019-04-06T10:36:38.285Z,33.22
2019-04-06T10:37:38.151Z,32.32
2019-04-06T10:38:38.564Z,34.11
2019-04-06T10:39:38.047Z,33.11
2019-04-06T10:40:38.311Z,34.21
2019-04-06T10:41:38.027Z,34.01
2019-04-06T10:42:38.121Z,34.61
2019-04-06T10:43:38.082Z,39.18
2019-04-06T10:44:37.999Z,40.58
2019-04-06T10:45:37.992Z,42.07
2019-04-06T10:46:37.971Z,35.49
2019-04-06T10:47:37.963Z,35.10
2019-04-06T10:48:38.051Z,34.31
2019-04-06T10:49:37.942Z,33.92
2019-04-06T10:50:37.930Z,32.22
2019-04-06T10:51:40.557Z,30.03
2019-04-06T10:52:37.910Z,32.23
2019-04-06T10:53:37.902Z,32.04
2019-04-06T10:54:38.194Z,32.23
2019-04-06T10:55:38.186Z,33.25
2019-04-06T10:56:37.872Z,32.95
2019-04-06T10:57:37.859Z,33.25
2019-04-06T10:58:37.987Z,33.15
2019-04-06T10:59:37.838Z,33.64
2019-04-06T11:00:37.926Z,33.94
2019-04-06T11:01:37.815Z,34.04
2019-04-06T11:02:37.833Z,34.14
2019-04-06T11:03:37.791Z,34.14
2019-04-06T11:04:37.782Z,35.05
2019-04-06T11:05:37.773Z,33.96
2019-04-06T11:06:37.865Z,34.46
2019-04-06T11:07:38.238Z,34.34
2019-04-06T11:08:37.738Z,32.07
2019-04-06T11:09:37.722Z,32.07
2019-04-06T11:10:37.711Z,31.37
2019-04-06T11:11:37.853Z,33.76
2019-04-06T11:12:37.917Z,34.16
2019-04-06T11:13:37.689Z,32.07
2019-04-06T11:14:37.673Z,32.08
2019-04-06T11:15:37.661Z,32.97
2019-04-06T11:16:37.648Z,31.87
2019-04-06T11:17:37.739Z,31.97
2019-04-06T11:18:37.630Z,32.47
2019-04-06T11:19:37.612Z,33.48
2019-04-06T11:20:37.606Z,33.36
2019-04-06T11:21:37.593Z,33.28
2019-04-06T11:22:37.584Z,35.17
2019-04-06T11:23:37.674Z,32.98
2019-04-06T11:24:37.566Z,34.87
2019-04-06T11:25:37.553Z,35.17
2019-04-06T11:26:37.543Z,34.97
2019-04-06T11:27:37.671Z,34.68
2019-04-06T11:28:37.520Z,32.58
2019-04-06T11:29:37.604Z,32.08
2019-04-06T11:30:37.496Z,32.98
2019-04-06T11:31:37.492Z,32.68
2019-04-06T11:32:37.650Z,33.38
2019-04-06T11:33:37.622Z,31.98
2019-04-06T11:34:37.602Z,31.29
2019-04-06T11:35:37.442Z,31.98
2019-04-06T11:36:37.431Z,31.29
2019-04-06T11:37:37.416Z,31.68
2019-04-06T11:38:37.407Z,29.99
2019-04-06T11:39:37.394Z,31.48
2019-04-06T11:40:37.535Z,32.58
2019-04-06T11:41:37.376Z,31.39
2019-04-06T11:42:37.362Z,32.38
2019-04-06T11:43:37.353Z,31.30
2019-04-06T11:44:37.338Z,31.00
2019-04-06T11:45:37.328Z,30.09
2019-04-06T11:46:37.421Z,31.39
2019-04-06T11:47:37.307Z,31.20
2019-04-06T11:48:37.461Z,31.09
2019-04-06T11:49:37.287Z,31.90
2019-04-06T11:50:37.275Z,32.28
2019-04-06T11:51:37.591Z,35.77
2019-04-06T11:52:37.454Z,31.98
2019-04-06T11:53:37.395Z,33.97
2019-04-06T11:54:37.523Z,31.18
2019-04-06T11:55:37.257Z,32.68
2019-04-06T11:56:37.211Z,32.68
2019-04-06T11:57:37.198Z,34.68
2019-04-06T11:58:37.289Z,33.38
2019-04-06T11:59:37.175Z,32.38
2019-04-06T12:00:37.167Z,33.08
2019-04-06T12:01:37.155Z,32.98
2019-04-06T12:02:37.143Z,32.68
2019-04-06T12:03:37.132Z,32.18
2019-04-06T12:04:37.194Z,31.30
2019-04-06T12:05:37.109Z,31.40
2019-04-06T12:06:37.197Z,31.40
2019-04-06T12:07:37.347Z,31.90
2019-04-06T12:08:37.078Z,31.00
2019-04-06T12:09:37.078Z,32.29
2019-04-06T12:10:37.250Z,33.61
2019-04-06T12:11:37.044Z,33.21
2019-04-06T12:12:37.329Z,32.71
2019-04-06T12:13:37.023Z,32.22
2019-04-06T12:14:37.010Z,31.92
2019-04-06T12:15:37.001Z,33.31
2019-04-06T12:16:37.040Z,32.51
2019-04-06T12:17:36.979Z,33.91
2019-04-06T12:18:37.236Z,32.41
2019-04-06T12:19:36.957Z,32.01
2019-04-06T12:20:36.946Z,32.91
2019-04-06T12:21:36.983Z,32.51
2019-04-06T12:22:36.972Z,32.61
2019-04-06T12:23:37.299Z,33.21
2019-04-06T12:24:36.901Z,33.61
2019-04-06T12:25:37.054Z,33.71
2019-04-06T12:26:36.876Z,33.11
2019-04-06T12:27:36.865Z,34.11
2019-04-06T12:28:37.063Z,34.01
2019-04-06T12:29:36.847Z,33.31
2019-04-06T12:30:39.072Z,32.93
2019-04-06T12:31:36.822Z,32.93
2019-04-06T12:32:36.812Z,33.83
2019-04-06T12:33:36.799Z,34.22
2019-04-06T12:34:37.132Z,34.02
2019-04-06T12:35:36.782Z,34.22
2019-04-06T12:36:36.769Z,34.42
2019-04-06T12:37:36.754Z,35.12
2019-04-06T12:38:37.101Z,34.62
2019-04-06T12:39:36.735Z,34.32
2019-04-06T12:40:36.835Z,33.72
2019-04-06T12:41:36.715Z,34.32
2019-04-06T12:42:36.704Z,33.53
2019-04-06T12:43:36.692Z,34.13
2019-04-06T12:44:36.836Z,34.32
2019-04-06T12:45:36.959Z,33.23
2019-04-06T12:46:37.647Z,33.92
2019-04-06T12:47:36.766Z,33.63
2019-04-06T12:48:36.782Z,34.13
2019-04-06T12:49:36.624Z,34.34
2019-04-06T12:50:36.613Z,34.14
2019-04-06T12:51:36.604Z,34.34
2019-04-06T12:52:37.027Z,34.14
2019-04-06T12:53:36.583Z,34.04
2019-04-06T12:54:36.577Z,34.74
2019-04-06T12:55:36.565Z,34.64
2019-04-06T12:56:36.776Z,34.54
2019-04-06T12:57:36.533Z,34.04
2019-04-06T12:58:36.627Z,34.46
2019-04-06T12:59:36.566Z,34.34
2019-04-06T13:00:48.396Z,34.44
2019-04-06T13:02:01.428Z,34.94
2019-04-06T13:03:01.302Z,34.84
2019-04-06T13:04:01.483Z,35.34
2019-04-06T13:05:01.275Z,35.74
2019-04-06T13:06:01.267Z,35.14
2019-04-06T13:07:01.347Z,35.85
2019-04-06T13:08:01.244Z,35.66
2019-04-06T13:09:01.234Z,36.15
2019-04-06T13:10:01.266Z,36.05
2019-04-06T13:11:01.218Z,35.76
2019-04-06T13:12:01.195Z,35.96
2019-04-06T13:13:01.188Z,36.46
2019-04-06T13:14:01.175Z,36.15
2019-04-06T13:15:01.416Z,37.75
2019-04-06T13:16:01.518Z,36.77
2019-04-06T13:17:01.143Z,36.46
2019-04-06T13:18:01.275Z,36.95
2019-04-06T13:19:01.121Z,36.46
2019-04-06T13:20:01.222Z,36.57